Time;durP1;ratioP1;P1;durP2;ratioP2;P2;SDS_P1;SDS_P2;PMS_P1;PMS_P2;Temp;Humidity;BMP_temperature;BMP_pressure;BME280_temperature;BME280_humidity;BME280_pressure;Samples;Min_cycle;Max_cycle;Signal;HPM_P1;HPM_P2
2022/04/12 00:02:38;;;;;;;8.82;4.75;;;;;;;10.34;67.36;100174.19;8291970;28;20049;-64
2022/04/12 00:06:38;;;;;;;8.95;5.07;;;;;;;10.32;67.27;100168.13;8303679;28;20041;-64
2022/04/12 00:10:39;;;;;;;8.32;3.60;;;;;;;10.33;67.22;100153.59;8277892;28;20053;-64
2022/04/12 00:14:39;;;;;;;6.15;4.20;;;;;;;10.34;67.35;100151.75;8260168;28;20043;-64
2022/04/12 00:19:13;;;;;;;12.70;4.47;;;;;;;10.30;67.48;100145.78;8252018;28;20042;-64
2022/04/12 00:23:00;;;;;;;6.05;4.03;;;;;;;10.24;68.05;100146.38;8283384;28;20281;-64
2022/04/12 00:27:01;;;;;;;10.70;4.25;;;;;;;10.18;68.12;100138.84;8284557;28;20046;-64
2022/04/12 00:31:02;;;;;;;7.23;4.33;;;;;;;10.20;68.34;100139.56;8289392;28;20514;-64
2022/04/12 00:35:03;;;;;;;6.50;4.88;;;;;;;10.18;68.24;100136.16;8289900;28;20383;-64
2022/04/12 00:39:04;;;;;;;7.20;4.88;;;;;;;10.15;68.33;100131.03;8289231;28;20053;-64
2022/04/12 00:43:05;;;;;;;7.00;4.90;;;;;;;10.10;68.69;100146.88;8288360;28;20038;-64
2022/04/12 00:47:05;;;;;;;7.07;4.70;;;;;;;10.15;68.58;100141.03;8289330;28;20069;-64
2022/04/12 00:51:06;;;;;;;7.15;4.75;;;;;;;10.08;68.94;100148.00;8269900;28;20046;-64
2022/04/12 00:55:07;;;;;;;8.88;5.00;;;;;;;10.04;69.05;100136.63;8257079;28;20495;-64
2022/04/12 00:59:08;;;;;;;7.95;4.72;;;;;;;10.10;69.04;100133.38;8256253;28;20510;-64
2022/04/12 01:03:09;;;;;;;8.80;4.43;;;;;;;10.09;69.23;100126.22;8270272;28;20054;-64
2022/04/12 01:07:10;;;;;;;10.13;4.97;;;;;;;10.15;69.11;100117.53;8271342;28;20160;-64
2022/04/12 01:11:10;;;;;;;8.30;4.22;;;;;;;10.18;68.44;100114.53;8288454;28;20045;-64
2022/04/12 01:15:15;;;;;;;11.93;5.20;;;;;;;10.21;68.48;100126.94;8271297;28;20046;-64
2022/04/12 01:19:16;;;;;;;8.23;5.15;;;;;;;10.16;68.27;100124.66;8287738;28;20399;-64
2022/04/12 01:23:31;;;;;;;9.30;4.82;;;;;;;10.11;69.04;100112.59;8256515;28;20046;-64
2022/04/12 01:27:31;;;;;;;8.23;4.97;;;;;;;10.08;69.33;100108.34;8272570;28;20455;-64
2022/04/12 01:31:31;;;;;;;8.35;4.15;;;;;;;10.02;69.44;100088.16;8288435;28;20038;-64
2022/04/12 01:35:33;;;;;;;8.77;4.78;;;;;;;10.04;69.43;100082.59;8286680;28;20037;-64
2022/04/12 01:39:33;;;;;;;7.00;4.85;;;;;;;10.08;69.81;100070.53;8272471;28;20469;-64
2022/04/12 01:43:34;;;;;;;9.48;4.65;;;;;;;10.17;69.55;100072.34;8254324;28;20038;-64
2022/04/12 01:47:34;;;;;;;7.55;4.38;;;;;;;10.29;68.96;100084.66;8255707;28;20519;-64
2022/04/12 01:51:35;;;;;;;6.35;4.38;;;;;;;10.42;67.94;100085.16;8270811;28;20132;-64
2022/04/12 01:55:35;;;;;;;9.25;4.57;;;;;;;10.47;67.87;100082.84;8279164;28;20034;-64
2022/04/12 01:59:36;;;;;;;7.45;4.25;;;;;;;10.55;67.73;100096.44;8286705;28;20038;-64
2022/04/12 02:03:36;;;;;;;10.15;4.88;;;;;;;10.52;67.77;100096.75;8287337;28;20469;-64
2022/04/12 02:07:37;;;;;;;7.57;4.28;;;;;;;10.54;68.08;100078.53;8287061;28;20076;-64
2022/04/12 02:11:37;;;;;;;7.50;5.03;;;;;;;10.54;68.12;100088.50;8286074;28;20045;-64
2022/04/12 02:15:37;;;;;;;6.63;4.00;;;;;;;10.62;67.86;100096.72;8271981;28;20092;-64
2022/04/12 02:19:38;;;;;;;7.78;4.60;;;;;;;10.66;67.58;100090.84;8291615;28;20409;-64
2022/04/12 02:23:38;;;;;;;8.25;4.82;;;;;;;10.56;68.19;100087.38;8318530;28;20041;-64
2022/04/12 02:27:39;;;;;;;7.20;4.13;;;;;;;10.49;68.61;100091.66;8301109;28;20080;-64
2022/04/12 02:31:41;;;;;;;10.50;4.70;;;;;;;10.49;68.33;100090.81;8318097;28;20091;-64
2022/04/12 02:35:41;;;;;;;8.95;4.75;;;;;;;10.46;69.04;100086.53;8318554;28;20090;-64
2022/04/12 02:39:41;;;;;;;7.90;4.38;;;;;;;10.40;69.30;100087.13;8318110;28;20041;-64
2022/04/12 02:43:42;;;;;;;9.40;4.70;;;;;;;10.43;69.03;100089.53;8310758;28;20045;-64
2022/04/12 02:47:42;;;;;;;10.90;4.95;;;;;;;10.38;69.19;100082.91;8318345;28;20041;-64
2022/04/12 02:51:43;;;;;;;7.72;4.35;;;;;;;10.43;68.92;100086.84;8317597;28;20037;-64
2022/04/12 02:55:43;;;;;;;8.93;4.22;;;;;;;10.43;69.11;100084.13;8317751;28;20038;-64
2022/04/12 02:59:43;;;;;;;7.18;4.97;;;;;;;10.38;69.41;100067.53;8310923;28;20052;-64
2022/04/12 03:03:44;;;;;;;6.88;4.88;;;;;;;10.40;69.13;100068.22;8317835;28;20034;-64
2022/04/12 03:07:44;;;;;;;7.40;4.05;;;;;;;10.35;69.26;100050.78;8300345;28;20140;-64
2022/04/12 03:11:45;;;;;;;7.88;4.10;;;;;;;10.26;69.59;100052.53;8317991;28;20034;-64
2022/04/12 03:15:45;;;;;;;6.35;4.63;;;;;;;10.29;69.48;100054.06;8318443;28;20598;-64
2022/04/12 03:19:46;;;;;;;6.40;4.20;;;;;;;10.34;69.00;100049.09;8317708;28;20091;-64
2022/04/12 03:23:46;;;;;;;5.63;4.00;;;;;;;10.41;69.04;100056.44;8317649;28;20091;-64
2022/04/12 03:27:47;;;;;;;10.95;4.78;;;;;;;10.41;68.83;100045.63;8317924;28;20054;-64
2022/04/12 03:31:47;;;;;;;6.07;4.43;;;;;;;10.40;69.00;100038.50;8309382;28;20072;-64
2022/04/12 03:35:47;;;;;;;7.90;4.57;;;;;;;10.40;68.69;100038.50;8316686;28;20140;-64
2022/04/12 03:39:50;;;;;;;8.27;4.87;;;;;;;10.39;68.83;100041.34;8314543;28;20041;-64
2022/04/12 03:43:51;;;;;;;8.63;4.57;;;;;;;10.32;69.13;100035.72;8317144;28;20641;-64
2022/04/12 03:47:51;;;;;;;8.30;4.55;;;;;;;10.31;69.29;100022.38;8317544;28;20064;-64
2022/04/12 03:51:51;;;;;;;6.55;4.28;;;;;;;10.32;69.28;100014.13;8316003;28;20095;-64
2022/04/12 03:55:52;;;;;;;10.85;4.95;;;;;;;10.33;69.25;100032.00;8317195;28;20033;-64
2022/04/12 03:59:52;;;;;;;7.68;4.90;;;;;;;10.22;69.69;100026.84;8316850;28;20045;-64
2022/04/12 04:03:52;;;;;;;7.00;4.60;;;;;;;10.15;69.82;100033.81;8320034;28;20041;-64
2022/04/12 04:07:53;;;;;;;8.98;5.35;;;;;;;10.12;69.87;100031.41;8323426;28;20128;-64
2022/04/12 04:11:56;;;;;;;7.63;4.82;;;;;;;10.07;69.82;100036.44;8322615;28;20042;-64
2022/04/12 04:15:57;;;;;;;10.73;4.75;;;;;;;9.94;70.88;100030.47;8302113;28;20069;-64
2022/04/12 04:19:57;;;;;;;8.27;4.30;;;;;;;9.84;71.40;100040.44;8306506;28;20066;-64
2022/04/12 04:23:58;;;;;;;9.85;5.00;;;;;;;9.73;72.17;100032.56;8303811;28;20048;-64
2022/04/12 04:27:58;;;;;;;9.00;5.00;;;;;;;9.61;72.53;100039.94;8298315;28;20041;-64
2022/04/12 04:31:59;;;;;;;8.57;4.50;;;;;;;9.47;73.60;100047.66;8292402;28;20092;-64
2022/04/12 04:35:59;;;;;;;10.83;4.83;;;;;;;9.36;74.55;100053.22;8271908;28;20041;-64
2022/04/12 04:40:00;;;;;;;9.57;5.32;;;;;;;9.29;74.87;100057.47;8285178;28;20284;-64
2022/04/12 04:44:00;;;;;;;9.70;5.45;;;;;;;9.30;74.68;100056.50;8297002;28;20053;-64
2022/04/12 04:48:03;;;;;;;12.40;5.65;;;;;;;9.30;74.83;100053.81;8310926;28;20521;-64
2022/04/12 04:52:04;;;;;;;7.57;5.05;;;;;;;9.30;75.24;100056.50;8289826;28;20049;-64
2022/04/12 04:56:05;;;;;;;10.50;5.32;;;;;;;9.31;75.53;100063.59;8279348;28;20121;-64
2022/04/12 05:00:07;;;;;;;9.15;4.85;;;;;;;9.23;75.86;100060.75;8286087;28;21462;-64
2022/04/12 05:04:08;;;;;;;11.23;5.30;;;;;;;9.13;76.51;100051.81;8269937;28;20450;-64
2022/04/12 05:08:08;;;;;;;9.02;5.43;;;;;;;9.18;76.48;100049.56;8256238;28;20127;-64
2022/04/12 05:12:09;;;;;;;10.87;5.10;;;;;;;9.26;75.92;100044.28;8261432;28;20453;-64
2022/04/12 05:16:09;;;;;;;11.32;4.90;;;;;;;9.37;75.52;100041.44;8261527;28;20622;-64
2022/04/12 05:20:10;;;;;;;13.30;5.57;;;;;;;9.55;74.99;100035.13;8265012;28;20684;-64
2022/04/12 05:24:11;;;;;;;11.05;5.25;;;;;;;9.72;74.25;100030.84;8260148;28;20034;-64
2022/04/12 05:28:11;;;;;;;9.90;5.38;;;;;;;9.93;73.83;100037.72;8273132;28;20041;-64
2022/04/12 05:32:13;;;;;;;6.82;4.97;;;;;;;10.07;72.84;100036.44;8283834;28;20112;-64
2022/04/12 05:36:13;;;;;;;9.00;4.43;;;;;;;10.29;72.15;100041.44;8250599;28;20525;-64
2022/04/12 05:40:15;;;;;;;14.27;5.97;;;;;;;10.51;71.60;100051.81;8249039;28;20407;-64
2022/04/12 05:44:15;;;;;;;11.15;4.78;;;;;;;10.76;70.73;100058.31;8256266;28;20046;-64
2022/04/12 05:48:16;;;;;;;8.07;4.93;;;;;;;10.97;70.08;100070.56;8269372;28;20045;-64
2022/04/12 05:52:16;;;;;;;8.10;4.65;;;;;;;11.11;69.97;100072.75;8280038;28;21271;-64
2022/04/12 05:56:17;;;;;;;9.68;4.68;;;;;;;11.10;70.37;100071.03;8301692;28;20053;-65
2022/04/12 06:00:20;;;;;;;10.70;4.68;;;;;;;11.03;71.00;100086.19;8286814;28;20041;-64
2022/04/12 06:04:20;;;;;;;8.10;4.38;;;;;;;11.13;70.56;100076.13;8291178;28;20053;-64
2022/04/12 06:08:20;;;;;;;11.77;5.18;;;;;;;11.12;71.49;100084.41;8267285;28;20081;-64
2022/04/12 06:12:21;;;;;;;13.70;6.60;;;;;;;11.10;72.54;100076.44;8267717;28;20041;-64
2022/04/12 06:16:21;;;;;;;19.08;11.32;;;;;;;11.13;71.78;100076.13;8284154;28;20042;-64
2022/04/12 06:20:22;;;;;;;23.77;11.85;;;;;;;11.20;71.25;100077.19;8286175;28;20432;-64
2022/04/12 06:24:22;;;;;;;26.40;13.90;;;;;;;11.30;70.76;100077.97;8290424;28;20041;-64
2022/04/12 06:28:23;;;;;;;22.52;10.65;;;;;;;11.41;70.07;100079.59;8314080;28;20052;-64
2022/04/12 06:32:26;;;;;;;19.83;9.35;;;;;;;11.53;69.80;100090.00;8288557;28;20037;-64
2022/04/12 06:36:26;;;;;;;20.95;10.93;;;;;;;11.58;69.99;100084.97;8310976;28;20456;-64
2022/04/12 06:40:26;;;;;;;16.85;8.48;;;;;;;11.65;69.98;100087.94;8305834;28;20049;-64
2022/04/12 06:44:32;;;;;;;12.88;8.30;;;;;;;11.74;70.11;100092.38;8298427;28;20034;-64
2022/04/12 06:48:32;;;;;;;13.95;7.35;;;;;;;11.81;69.56;100093.47;8317803;28;20091;-64
2022/04/12 06:52:33;;;;;;;17.00;8.75;;;;;;;11.84;70.16;100087.75;8314319;28;20627;-64
2022/04/12 06:56:33;;;;;;;12.05;5.90;;;;;;;11.92;69.88;100084.25;8291321;28;20239;-64
2022/04/12 07:00:34;;;;;;;10.52;6.95;;;;;;;11.89;71.07;100086.25;8295129;28;20045;-64
2022/04/12 07:04:34;;;;;;;16.92;6.10;;;;;;;12.09;69.76;100080.59;8289940;28;20494;-64
2022/04/12 07:08:34;;;;;;;10.23;5.85;;;;;;;12.36;69.51;100077.69;8278038;28;20068;-64
2022/04/12 07:12:36;;;;;;;11.65;6.03;;;;;;;12.66;69.74;100080.69;8271631;28;20038;-64
2022/04/12 07:16:36;;;;;;;9.57;5.88;;;;;;;12.73;69.59;100079.03;8282226;28;20030;-64
2022/04/12 07:20:36;;;;;;;9.63;5.65;;;;;;;13.01;67.66;100079.63;8270055;28;20042;-65
2022/04/12 07:24:37;;;;;;;11.60;5.43;;;;;;;13.02;68.28;100075.91;8279150;28;20060;-65
2022/04/12 07:28:37;;;;;;;7.53;4.90;;;;;;;13.24;66.41;100064.41;8281772;28;20285;-65
2022/04/12 07:32:38;;;;;;;12.83;5.17;;;;;;;13.62;65.31;100066.44;8296776;28;20093;-65
2022/04/12 07:36:43;;;;;;;11.38;4.35;;;;;;;13.99;65.07;100065.88;8271820;28;20277;-65
2022/04/12 07:40:44;;;;;;;8.90;4.43;;;;;;;14.36;65.04;100050.66;8307393;28;20449;-65
2022/04/12 07:44:44;;;;;;;8.60;4.68;;;;;;;14.74;64.64;100051.66;8283186;28;20057;-65
2022/04/12 07:48:44;;;;;;;4.70;2.80;;;;;;;15.21;62.19;100053.22;8280864;28;20496;-65
2022/04/12 07:52:45;;;;;;;4.85;2.47;;;;;;;15.35;61.17;100036.13;8289911;28;20300;-65
2022/04/12 07:56:45;;;;;;;5.33;3.20;;;;;;;15.56;61.20;100039.00;8280218;28;20042;-65
2022/04/12 08:00:45;;;;;;;5.07;2.20;;;;;;;15.63;60.41;100042.69;8284044;28;20296;-65
2022/04/12 08:04:46;;;;;;;6.40;2.53;;;;;;;15.68;59.95;100032.06;8267091;28;20038;-65
2022/04/12 08:08:46;;;;;;;3.58;2.15;;;;;;;16.09;60.05;100045.28;8281045;28;20692;-66
2022/04/12 08:12:47;;;;;;;4.80;2.38;;;;;;;16.23;59.20;100039.84;8283140;28;20046;-65
2022/04/12 08:16:47;;;;;;;6.05;2.25;;;;;;;16.48;58.79;100046.75;8317407;28;20124;-65
2022/04/12 08:20:49;;;;;;;7.47;2.70;;;;;;;16.82;57.56;100048.84;8321987;28;20037;-66
2022/04/12 08:24:50;;;;;;;6.75;2.10;;;;;;;17.06;56.56;100040.28;8322072;28;20132;-66
2022/04/12 08:28:50;;;;;;;6.80;2.53;;;;;;;17.42;58.07;100046.56;8321878;28;20674;-66
2022/04/12 08:32:51;;;;;;;3.88;2.50;;;;;;;17.41;56.95;100050.31;8322502;28;20292;-66
2022/04/12 08:36:51;;;;;;;7.90;2.85;;;;;;;17.77;57.58;100052.97;8321956;28;20108;-66
2022/04/12 08:40:54;;;;;;;7.13;2.80;;;;;;;17.77;56.12;100040.16;8321394;28;20041;-66
2022/04/12 08:44:57;;;;;;;9.77;3.35;;;;;;;17.53;57.09;100016.81;8302798;28;20632;-66
2022/04/12 08:48:57;;;;;;;11.48;3.70;;;;;;;17.37;56.97;100019.81;8320833;28;20029;-66
2022/04/12 08:52:59;;;;;;;7.97;3.30;;;;;;;17.31;56.04;100023.31;8321727;28;20041;-66
2022/04/12 08:56:59;;;;;;;9.32;3.17;;;;;;;17.70;57.38;100022.00;8314693;28;20038;-66
2022/04/12 09:01:00;;;;;;;5.68;2.70;;;;;;;17.70;56.83;100032.94;8321237;28;20611;-65
2022/04/12 09:05:02;;;;;;;8.48;3.33;;;;;;;17.69;55.56;100015.72;8272616;28;20100;-65
2022/04/12 09:09:19;;;;;;;6.72;2.85;;;;;;;17.93;56.05;100020.69;8305888;28;20136;-65
2022/04/12 09:13:20;;;;;;;4.63;2.92;;;;;;;17.87;55.16;100015.22;8309535;28;21105;-65
2022/04/12 09:17:29;;;;;;;7.33;2.90;;;;;;;18.17;55.16;100020.22;8320121;28;20053;-65
2022/04/12 09:21:31;;;;;;;4.43;2.50;;;;;;;18.37;54.08;99993.00;8320893;28;20269;-65
2022/04/12 09:25:31;;;;;;;6.00;3.40;;;;;;;18.19;54.73;100012.69;8296025;28;20033;-65
2022/04/12 09:29:32;;;;;;;8.75;3.13;;;;;;;18.41;55.60;100010.72;8311948;28;20045;-65
2022/04/12 09:33:35;;;;;;;4.67;2.37;;;;;;;19.04;54.19;100013.06;8308653;28;20410;-65
2022/04/12 09:37:39;;;;;;;8.23;3.72;;;;;;;19.12;53.81;100005.47;8293721;28;20720;-65
2022/04/12 09:41:39;;;;;;;5.27;3.07;;;;;;;19.99;52.01;100010.81;8290415;28;20042;-65
2022/04/12 09:45:43;;;;;;;5.88;3.08;;;;;;;21.31;50.46;100010.94;8283669;28;20049;-66
2022/04/12 09:49:46;;;;;;;7.63;3.63;;;;;;;22.09;49.57;100002.06;8287821;28;20048;-67
2022/04/12 09:53:47;;;;;;;8.90;3.33;;;;;;;23.00;46.98;99991.88;8313064;28;20446;-67
2022/04/12 09:57:47;;;;;;;4.80;2.65;;;;;;;23.05;46.44;99984.56;8286486;28;20052;-66
2022/04/12 10:01:48;;;;;;;7.97;2.80;;;;;;;22.98;46.59;99983.84;8280060;28;20120;-66
2022/04/12 10:05:48;;;;;;;6.15;3.10;;;;;;;23.06;47.01;99969.69;8288144;28;20124;-66
2022/04/12 10:09:50;;;;;;;6.35;2.60;;;;;;;23.81;45.94;99967.25;8287717;28;20038;-67
2022/04/12 10:13:51;;;;;;;4.78;2.75;;;;;;;24.24;45.76;99967.75;8290318;28;20045;-66
2022/04/12 10:17:53;;;;;;;4.30;2.45;;;;;;;24.18;45.07;99958.50;8271399;28;20038;-67
2022/04/12 10:21:53;;;;;;;7.15;2.30;;;;;;;24.32;46.18;99962.69;8272543;28;20053;-67
2022/04/12 10:25:56;;;;;;;6.13;2.90;;;;;;;24.45;44.69;99945.84;8286355;28;20118;-67
2022/04/12 10:34:29;;;;;;;8.13;3.40;;;;;;;25.49;44.95;99945.41;8295760;27;20835;-66
2022/04/12 10:38:40;;;;;;;14.10;2.35;;;;;;;25.35;43.52;99930.22;8304005;28;20048;-67
2022/04/12 10:42:41;;;;;;;6.55;2.03;;;;;;;25.68;43.59;99926.63;8329240;28;20116;-67
2022/04/12 10:46:47;;;;;;;4.05;2.33;;;;;;;25.53;44.18;99927.22;8326714;28;20072;-67
2022/04/12 10:50:50;;;;;;;4.47;2.10;;;;;;;25.94;43.73;99926.75;8322330;28;20317;-67
2022/04/12 10:54:51;;;;;;;2.88;1.38;;;;;;;26.36;42.66;99903.00;8337862;28;20409;-66
2022/04/12 10:58:52;;;;;;;4.43;1.95;;;;;;;25.92;44.21;99917.84;8329494;28;20084;-66
2022/04/12 11:02:56;;;;;;;4.32;2.00;;;;;;;25.49;43.33;99906.66;8318075;28;20041;-66
2022/04/12 11:06:58;;;;;;;2.78;1.40;;;;;;;25.24;44.13;99914.50;8326043;28;20041;-65
2022/04/12 11:15:23;;;;;;;6.72;1.67;;;;;;;25.65;43.54;99905.81;8306570;27;20400;-64
2022/04/12 11:19:24;;;;;;;3.97;1.27;;;;;;;24.98;44.76;99907.66;8303448;28;20216;-65
2022/04/12 11:24:00;;;;;;;5.68;1.20;;;;;;;25.30;44.68;99896.88;8312511;28;20056;-65
2022/04/12 11:28:01;;;;;;;4.30;1.55;;;;;;;25.70;43.32;99896.72;8312678;28;20060;-65
2022/04/12 11:32:02;;;;;;;6.45;2.03;;;;;;;25.66;43.61;99901.09;8287332;28;20038;-65
2022/04/12 11:36:03;;;;;;;3.67;2.05;;;;;;;25.82;44.18;99901.09;8312580;28;20452;-65
2022/04/12 11:40:04;;;;;;;4.63;2.17;;;;;;;25.80;42.80;99897.72;8310009;28;20025;-65
2022/04/12 11:44:05;;;;;;;6.50;1.98;;;;;;;26.19;43.88;99896.66;8304322;28;20038;-64
2022/04/12 11:48:06;;;;;;;9.77;2.10;;;;;;;26.47;42.48;99893.69;8336118;28;20037;-64
2022/04/12 11:52:10;;;;;;;4.80;2.13;;;;;;;26.78;41.56;99898.53;8306825;28;20131;-64
2022/04/12 11:56:10;;;;;;;5.55;2.00;;;;;;;26.26;42.57;99891.75;8299515;28;20154;-64
2022/04/12 12:00:11;;;;;;;3.58;1.77;;;;;;;25.39;44.16;99906.50;8301032;28;20038;-65
2022/04/12 12:04:12;;;;;;;4.72;1.83;;;;;;;25.12;42.88;99908.19;8301525;28;20033;-65
2022/04/12 12:08:17;;;;;;;3.33;1.40;;;;;;;25.00;44.17;99902.72;8282726;28;20037;-65
2022/04/12 12:12:17;;;;;;;2.13;1.40;;;;;;;24.02;44.72;99908.66;8301856;28;20277;-65
2022/04/12 12:16:17;;;;;;;3.53;1.33;;;;;;;23.52;45.34;99901.94;8301743;28;20052;-65
2022/04/12 12:20:20;;;;;;;4.20;1.80;;;;;;;23.09;47.83;99886.50;8296602;28;20584;-65
2022/04/12 12:24:21;;;;;;;4.97;1.33;;;;;;;23.12;47.68;99871.41;8291441;28;20359;-65
2022/04/12 12:28:25;;;;;;;1.75;1.30;;;;;;;23.09;47.58;99858.91;8278980;28;20092;-65
2022/04/12 12:32:29;;;;;;;8.02;1.83;;;;;;;23.19;47.50;99859.19;8291020;28;20406;-65
2022/04/12 12:36:29;;;;;;;2.78;1.63;;;;;;;23.12;47.52;99868.66;8278096;28;20397;-65
2022/04/12 12:40:31;;;;;;;2.87;1.23;;;;;;;23.51;46.87;99872.69;8274216;28;20160;-65
2022/04/12 12:44:36;;;;;;;4.00;1.00;;;;;;;23.93;47.77;99871.44;8277757;28;20041;-65
2022/04/12 12:48:38;;;;;;;2.85;1.33;;;;;;;24.15;45.96;99880.81;8279708;28;20053;-65
2022/04/12 12:52:39;;;;;;;5.00;1.30;;;;;;;24.22;45.91;99873.22;8276304;28;20421;-65
2022/04/12 12:56:40;;;;;;;3.63;1.23;;;;;;;24.46;45.95;99880.34;8272054;28;20056;-65
2022/04/12 13:00:41;;;;;;;2.92;0.68;;;;;;;24.48;44.30;99861.56;8277964;28;20038;-65
2022/04/12 13:05:03;;;;;;;2.38;0.85;;;;;;;24.45;44.11;99864.84;8283521;28;20041;-65
2022/04/12 13:09:05;;;;;;;1.42;0.70;;;;;;;24.47;44.02;99858.00;8273376;28;20099;-65
2022/04/12 13:13:06;;;;;;;1.83;0.70;;;;;;;24.35;42.94;99870.16;8281461;28;20037;-65
2022/04/12 13:17:07;;;;;;;2.42;1.00;;;;;;;24.54;43.24;99863.34;8278403;28;20073;-65
2022/04/12 13:21:11;;;;;;;2.85;0.80;;;;;;;24.52;45.03;99865.53;8280747;28;20061;-65
2022/04/12 13:25:17;;;;;;;4.50;1.10;;;;;;;24.63;44.59;99851.66;8278689;28;20038;-65
2022/04/12 13:29:18;;;;;;;6.38;2.00;;;;;;;24.32;46.20;99854.06;8294232;28;20576;-65
2022/04/12 13:33:18;;;;;;;5.68;1.85;;;;;;;24.22;46.10;99848.34;8280192;28;20119;-65
2022/04/12 13:37:19;;;;;;;3.87;1.30;;;;;;;24.66;46.50;99844.81;8277042;28;20038;-65
2022/04/12 13:41:20;;;;;;;2.80;0.90;;;;;;;24.27;46.38;99842.91;8279932;28;20288;-66
2022/04/12 13:45:20;;;;;;;2.92;1.20;;;;;;;24.33;45.71;99841.94;8282781;28;20128;-66
2022/04/12 13:49:21;;;;;;;5.00;2.60;;;;;;;24.22;46.68;99837.28;8280989;28;20049;-64
2022/04/12 13:53:21;;;;;;;2.45;0.70;;;;;;;24.10;46.52;99833.72;8280858;28;20050;-65
2022/04/12 13:57:22;;;;;;;7.73;2.40;;;;;;;24.13;46.37;99823.03;8279943;28;20545;-65
2022/04/12 14:01:22;;;;;;;5.30;1.95;;;;;;;24.13;46.29;99823.03;8278579;28;20265;-65
2022/04/12 14:05:24;;;;;;;1.98;0.80;;;;;;;24.33;46.34;99812.38;8292131;28;20100;-65
2022/04/12 14:09:25;;;;;;;3.80;1.30;;;;;;;24.53;47.12;99823.84;8279420;28;20045;-65
2022/04/12 14:13:26;;;;;;;5.28;1.35;;;;;;;24.42;46.29;99815.56;8280073;28;20069;-65
2022/04/12 14:17:26;;;;;;;2.55;1.48;;;;;;;24.47;46.24;99815.69;8279041;28;20486;-65
2022/04/12 14:21:27;;;;;;;8.03;1.57;;;;;;;24.47;46.88;99812.91;8282181;28;20061;-65
2022/04/12 14:25:27;;;;;;;8.47;1.87;;;;;;;24.43;46.10;99801.50;8280514;28;20285;-65
2022/04/12 14:29:28;;;;;;;4.68;1.00;;;;;;;24.44;46.47;99796.84;8282358;28;20921;-65
2022/04/12 14:33:28;;;;;;;5.20;1.03;;;;;;;24.45;46.06;99788.28;8283415;28;20714;-65
2022/04/12 14:37:29;;;;;;;3.95;1.05;;;;;;;24.36;45.73;99777.88;8281965;28;20279;-65
2022/04/12 14:41:31;;;;;;;6.22;1.55;;;;;;;24.56;47.63;99786.56;8281643;28;20050;-65
2022/04/12 14:45:31;;;;;;;4.40;1.33;;;;;;;24.66;46.37;99784.00;8282972;28;20038;-65
2022/04/12 14:49:34;;;;;;;9.25;1.25;;;;;;;24.52;45.73;99777.09;8280588;28;20494;-65
2022/04/12 14:53:34;;;;;;;8.57;1.80;;;;;;;24.56;46.70;99783.78;8279275;28;20033;-65
2022/04/12 14:57:35;;;;;;;3.75;1.02;;;;;;;24.29;47.12;99779.97;8281811;28;20050;-66
2022/04/12 15:01:36;;;;;;;4.53;0.77;;;;;;;24.59;46.62;99777.78;8277241;28;20034;-67
2022/04/12 15:05:36;;;;;;;2.72;1.23;;;;;;;24.65;45.80;99763.84;8284608;28;20189;-67
2022/04/12 15:09:37;;;;;;;2.65;1.27;;;;;;;24.73;47.24;99770.88;8279375;28;20210;-66
2022/04/12 15:13:37;;;;;;;4.55;0.93;;;;;;;24.80;45.54;99774.31;8279191;28;20046;-66
2022/04/12 15:17:39;;;;;;;3.15;1.10;;;;;;;24.84;45.31;99767.19;8271877;28;20123;-66
2022/04/12 15:21:40;;;;;;;2.55;0.90;;;;;;;24.79;45.43;99772.59;8265208;28;20038;-66
2022/04/12 15:25:41;;;;;;;1.45;0.90;;;;;;;24.68;45.97;99773.53;8280223;28;20490;-66
2022/04/12 15:29:41;;;;;;;6.22;1.17;;;;;;;24.72;45.95;99771.94;8277804;28;20064;-67
2022/04/12 15:33:42;;;;;;;3.95;1.23;;;;;;;24.82;45.53;99777.63;8279417;28;20521;-65
2022/04/12 15:37:47;;;;;;;3.88;1.05;;;;;;;24.70;45.46;99779.66;8278114;28;20048;-67
2022/04/12 15:41:47;;;;;;;3.05;1.02;;;;;;;24.64;43.49;99773.19;8275932;28;20435;-67
2022/04/12 15:45:49;;;;;;;3.33;1.00;;;;;;;24.59;44.24;99783.28;8279493;28;20046;-66
2022/04/12 15:49:49;;;;;;;3.90;1.20;;;;;;;24.53;44.86;99789.81;8275696;28;20277;-66
2022/04/12 15:53:49;;;;;;;3.58;1.60;;;;;;;24.54;44.79;99788.72;8278510;28;20038;-67
2022/04/12 15:57:50;;;;;;;3.53;1.20;;;;;;;24.48;44.62;99792.47;8278800;28;20053;-67
2022/04/12 16:01:50;;;;;;;3.70;1.25;;;;;;;24.43;45.87;99800.69;8283627;28;20256;-67
2022/04/12 16:05:51;;;;;;;3.38;1.40;;;;;;;24.27;49.13;99812.50;8284867;28;20053;-67
2022/04/12 16:09:51;;;;;;;9.80;2.38;;;;;;;24.12;51.01;99809.47;8288254;28;20042;-67
2022/04/12 16:13:53;;;;;;;8.30;2.80;;;;;;;24.08;50.04;99820.16;8285480;28;20046;-67
2022/04/12 16:17:54;;;;;;;8.63;3.60;;;;;;;24.08;47.77;99824.84;8284342;28;20276;-67
2022/04/12 16:21:54;;;;;;;12.70;4.00;;;;;;;24.07;47.28;99828.69;8279657;28;20038;-67
2022/04/12 16:25:55;;;;;;;6.93;2.20;;;;;;;24.00;47.21;99834.34;8275020;28;20284;-67
2022/04/12 16:29:57;;;;;;;3.10;1.63;;;;;;;23.97;47.91;99834.00;8282596;28;20363;-66
2022/04/12 16:33:57;;;;;;;3.83;1.30;;;;;;;23.82;48.11;99839.16;8280187;28;20115;-67
2022/04/12 16:38:06;;;;;;;3.78;1.30;;;;;;;23.66;47.79;99853.72;8282129;28;20037;-67
2022/04/12 16:42:07;;;;;;;7.20;2.38;;;;;;;23.55;47.88;99855.41;8266080;28;20413;-66
2022/04/12 16:46:08;;;;;;;4.45;1.38;;;;;;;23.57;48.75;99863.44;8278246;28;20052;-66
2022/04/12 16:50:08;;;;;;;7.83;1.67;;;;;;;23.27;50.57;99860.78;8278472;28;20042;-66
2022/04/12 16:54:09;;;;;;;4.47;1.35;;;;;;;23.18;51.84;99865.75;8276130;28;21008;-66
2022/04/12 16:58:10;;;;;;;7.95;2.03;;;;;;;23.02;53.15;99874.75;8276776;28;20045;-66
2022/04/12 17:02:11;;;;;;;4.75;1.75;;;;;;;22.99;52.71;99880.72;8280087;28;20038;-66
2022/04/12 17:06:11;;;;;;;8.85;2.10;;;;;;;22.89;52.94;99874.09;8279138;28;20186;-67
2022/04/12 17:10:11;;;;;;;2.40;1.42;;;;;;;22.76;53.48;99877.06;8276825;28;20762;-66
2022/04/12 17:14:12;;;;;;;8.88;1.77;;;;;;;22.63;54.25;99875.31;8275621;28;20045;-66
2022/04/12 17:18:13;;;;;;;6.68;2.08;;;;;;;22.58;54.46;99888.13;8276976;28;20796;-67
2022/04/12 17:22:13;;;;;;;12.18;4.22;;;;;;;22.45;54.07;99893.81;8281812;28;20497;-66
2022/04/12 17:26:14;;;;;;;3.88;1.70;;;;;;;22.40;53.23;99897.25;8277744;28;20416;-66
2022/04/12 17:30:14;;;;;;;6.97;2.25;;;;;;;22.23;53.60;99904.44;8277944;28;20510;-66
2022/04/12 17:34:16;;;;;;;9.43;2.15;;;;;;;22.11;54.00;99908.22;8281247;28;20042;-66
2022/04/12 17:38:16;;;;;;;5.95;1.15;;;;;;;21.97;53.85;99913.03;8266568;28;20520;-66
2022/04/12 17:42:17;;;;;;;7.93;1.35;;;;;;;21.81;53.89;99919.16;8271235;28;20034;-66
2022/04/12 17:46:18;;;;;;;12.20;3.13;;;;;;;21.61;54.40;99918.44;8269957;28;20064;-66
2022/04/12 17:50:19;;;;;;;8.07;2.50;;;;;;;21.49;54.67;99925.75;8269630;28;20331;-66
2022/04/12 17:54:20;;;;;;;9.25;1.70;;;;;;;21.44;54.02;99933.88;8281831;28;20046;-66
2022/04/12 17:58:20;;;;;;;6.28;1.10;;;;;;;21.17;54.26;99943.38;8281488;28;20650;-66
2022/04/12 18:02:22;;;;;;;3.28;1.23;;;;;;;21.05;52.72;99951.47;8286780;28;20120;-65
2022/04/12 18:06:22;;;;;;;4.63;1.60;;;;;;;21.06;51.69;99938.59;8284712;28;20044;-65
2022/04/12 18:10:23;;;;;;;7.93;1.55;;;;;;;20.96;51.48;99957.47;8285480;28;20064;-65
2022/04/12 18:14:23;;;;;;;2.80;1.45;;;;;;;20.70;52.44;99960.31;8278421;28;20099;-65
2022/04/12 18:18:25;;;;;;;5.15;1.30;;;;;;;20.56;52.41;99962.28;8283444;28;20099;-65
2022/04/12 18:22:25;;;;;;;6.97;1.30;;;;;;;20.62;51.72;99966.09;8284020;28;20113;-65
2022/04/12 18:26:26;;;;;;;10.38;1.20;;;;;;;20.52;52.21;99976.72;8286369;28;20038;-66
2022/04/12 18:30:26;;;;;;;8.45;1.17;;;;;;;20.35;52.75;99986.47;8283733;28;20567;-65
2022/04/12 18:34:27;;;;;;;5.07;1.45;;;;;;;20.15;53.57;99993.91;8285596;28;20091;-65
2022/04/12 18:38:28;;;;;;;5.25;1.67;;;;;;;20.02;53.58;99993.91;8285797;28;20046;-65
2022/04/12 18:42:28;;;;;;;5.07;0.80;;;;;;;19.80;54.47;100001.56;8286363;28;20046;-65
2022/04/12 18:46:29;;;;;;;3.90;1.02;;;;;;;19.55;55.53;100005.16;8288914;28;20300;-65
2022/04/12 18:50:29;;;;;;;6.15;0.90;;;;;;;19.42;56.07;100012.31;8281159;28;20062;-65
2022/04/12 18:54:30;;;;;;;8.35;1.60;;;;;;;19.19;56.91;100020.03;8284842;28;20136;-65
2022/04/12 18:58:30;;;;;;;7.82;1.35;;;;;;;19.16;56.82;100034.16;8284351;28;20049;-65